Uraga Maru — JD2163 — position and weather

sailwx.info

Track history (hours):
 
Tides and Currents Weather Stations Pressure Air Temp Water Temp Dewpoint Dewpoint Depression Visibility Wind Speed Wind Dir Waves Ship Positions

Uraga Maru

Last reported at 2016-Jul-28 13:33 UTC. Time now 2016-Jul-28 16:28 UTC.
Position N 35°17' E 139°44'.

Length 40 m; draft 2.8 m.

Type: Tug. MMSI: 431101119.

Date/timePositionNaut miles runAvg speedWind from/ knotsBaromVisibWave heightAir tempDewpointWater temp
2016-Jul-28 13:33N 35°17' E 139°44'3 2.9
2016-Jul-28 12:34N 35°20' E 139°43'5 4.6
2016-Jul-28 11:33N 35°24' E 139°44'0 0.0
2016-Jul-28 10:33N 35°24' E 139°44'1 0.9
2016-Jul-28 09:33N 35°23' E 139°44'9 8.5
2016-Jul-28 08:27N 35°14' E 139°47'1111.7
2016-Jul-28 07:33N 35°24' E 139°43'1211.5
2016-Jul-28 06:33N 35°30' E 139°55'2 2.2
2016-Jul-28 05:33N 35°29' E 139°58'10 9.8
2016-Jul-28 04:33N 35°23' E 139°48'6 0.2
2016-Jul-27 01:33N 35°19' E 139°42'2 2.4
2016-Jul-27 00:33N 35°20' E 139°44'1110.6
2016-Jul-26 23:33N 35°10' E 139°47'5 4.8
2016-Jul-26 22:33N 35°13' E 139°43'2 1.6
2016-Jul-26 21:34N 35°13' E 139°45'9 9.2
2016-Jul-26 20:33N 35°22' E 139°42'4 4.3
2016-Jul-26 19:33N 35°18' E 139°41'1 0.3
2016-Jul-26 16:14N 35°17' E 139°41'0 0.0
2016-Jul-26 12:26N 35°17' E 139°41'6 7.1
2016-Jul-26 11:33N 35°13' E 139°46'1111.2
2016-Jul-26 10:34N 35°23' E 139°42'4 3.7
2016-Jul-26 09:33N 35°27' E 139°42'0 0.0
2016-Jul-26 08:33N 35°27' E 139°42'0 0.0
2016-Jul-26 07:33N 35°27' E 139°42'6 6.3
2016-Jul-26 06:33N 35°29' E 139°49'3 3.2
2016-Jul-26 05:33N 35°26' E 139°48'1010.4
2016-Jul-26 04:33N 35°15' E 139°47'5 4.9
2016-Jul-26 03:33N 35°11' E 139°48'4 4.1
2016-Jul-26 02:33N 35°15' E 139°46'1110.8
2016-Jul-26 01:33N 35°25' E 139°44'5 5.4
2016-Jul-26 00:33N 35°21' E 139°49'1 0.9
2016-Jul-25 23:33N 35°22' E 139°48'8 2.5
2016-Jul-25 20:31N 35°17' E 139°41'0 0.0
2016-Jul-25 19:21N 35°17' E 139°41'0 0.0
2016-Jul-25 08:13N 35°17' E 139°41'0 0.0
2016-Jul-25 02:22N 35°17' E 139°41'0 0.0
2016-Jul-25 01:31N 35°17' E 139°41'5 5.0
2016-Jul-25 00:33N 35°22' E 139°43'3 2.8
2016-Jul-24 23:33N 35°19' E 139°44'9 9.2
2016-Jul-24 22:33N 35°10' E 139°47'10 9.1
2016-Jul-24 21:30N 35°19' E 139°42'4 3.8
2016-Jul-24 20:33N 35°22' E 139°45'1211.4
2016-Jul-24 19:33N 35°10' E 139°47'8 8.0
2016-Jul-24 18:33N 35°18' E 139°43'2 1.6
2016-Jul-24 17:16N 35°17' E 139°41'0 0.0
2016-Jul-24 16:32N 35°17' E 139°41'0 0.0
2016-Jul-24 15:32N 35°17' E 139°41'0 0.0
2016-Jul-24 14:33N 35°17' E 139°41'0 0.0
2016-Jul-24 13:30N 35°17' E 139°41'0 0.0
2016-Jul-24 12:32N 35°17' E 139°41'0 0.0
2016-Jul-24 11:33N 35°17' E 139°41'0 0.0
2016-Jul-24 10:33N 35°17' E 139°41'0 0.1
2016-Jul-24 09:32N 35°17' E 139°41'6 5.7
2016-Jul-24 08:33N 35°14' E 139°46'10 9.9
2016-Jul-24 07:33N 35°23' E 139°42'4 3.8
2016-Jul-24 06:33N 35°27' E 139°42'9 9.0
2016-Jul-24 05:33N 35°29' E 139°53'1111.0
2016-Jul-24 04:33N 35°20' E 139°45'1111.0
2016-Jul-24 03:33N 35°10' E 139°46'5 4.5
2016-Jul-24 02:32N 35°13' E 139°43'0 0.0
2016-Jul-24 01:33N 35°13' E 139°43'1 1.4
2016-Jul-24 00:33N 35°13' E 139°45'8 7.6
2016-Jul-23 23:34N 35°20' E 139°42'4 4.0
2016-Jul-23 22:33N 35°24' E 139°44'7 6.8
2016-Jul-23 21:33N 35°19' E 139°39'2 2.3
2016-Jul-23 20:33N 35°18' E 139°41'1 1.0
2016-Jul-23 19:33N 35°17' E 139°41'0 0.0
2016-Jul-23 18:33N 35°17' E 139°41'0 0.0
2016-Jul-23 17:33N 35°17' E 139°41'0 0.0
2016-Jul-23 16:33N 35°17' E 139°41'0 0.0
2016-Jul-23 15:33N 35°17' E 139°41'0 0.0
2016-Jul-23 14:33N 35°17' E 139°41'0 0.0
2016-Jul-23 13:33N 35°17' E 139°41'0 0.0
2016-Jul-23 12:33N 35°17' E 139°41'0 0.0
2016-Jul-23 11:33N 35°17' E 139°41'0 0.0
2016-Jul-23 10:33N 35°17' E 139°41'0 0.0
2016-Jul-23 09:33N 35°17' E 139°41'0 0.0
2016-Jul-23 08:33N 35°17' E 139°41'0 0.0
2016-Jul-23 07:33N 35°17' E 139°41'0 0.0
2016-Jul-23 06:33N 35°17' E 139°41'4 2.1
2016-Jul-23 04:33N 35°13' E 139°43'4 4.3
2016-Jul-23 03:33N 35°17' E 139°41'0 0.3
2016-Jul-23 02:33N 35°17' E 139°41'0 0.0
2016-Jul-23 01:33N 35°17' E 139°41'1111.2
2016-Jul-23 00:33N 35°25' E 139°50'5 5.3
2016-Jul-22 23:33N 35°30' E 139°53'1312.7
2016-Jul-22 22:33N 35°20' E 139°44'1010.3
2016-Jul-22 21:33N 35°09' E 139°47'9 8.8
2016-Jul-22 20:33N 35°18' E 139°42'2 1.5
2016-Jul-22 19:29N 35°17' E 139°41'0 0.0
2016-Jul-22 18:15N 35°17' E 139°41'0 0.0
2016-Jul-22 17:29N 35°17' E 139°41'0 0.0
2016-Jul-22 16:31N 35°17' E 139°41'1 0.3
2016-Jul-22 12:33N 35°18' E 139°42'5 4.6
2016-Jul-22 11:29N 35°14' E 139°46'1112.4
2016-Jul-22 10:33N 35°25' E 139°44'2 2.1
2016-Jul-22 09:33N 35°27' E 139°42'0 0.0
2016-Jul-22 08:33N 35°27' E 139°42'0 0.0
2016-Jul-22 07:33N 35°27' E 139°42'7 3.7
2016-Jul-22 05:33N 35°29' E 139°51'3 2.6
2016-Jul-22 04:33N 35°27' E 139°49'10 9.7
2016-Jul-22 03:33N 35°18' E 139°45'8 8.0
2016-Jul-22 02:33N 35°10' E 139°47'6 5.6
2016-Jul-22 01:28N 35°16' E 139°45'8 8.4
2016-Jul-22 00:33N 35°23' E 139°45'3 2.6
2016-Jul-21 23:33N 35°25' E 139°48'8 8.0
2016-Jul-21 22:33N 35°17' E 139°46'6 5.7
2016-Jul-21 21:33N 35°11' E 139°46'7 7.4
2016-Jul-21 20:33N 35°17' E 139°41'0 0.0
2016-Jul-21 19:33N 35°17' E 139°41'0 0.0
2016-Jul-21 18:33N 35°17' E 139°41'0 0.0
2016-Jul-21 17:33N 35°17' E 139°41'0 0.0
2016-Jul-21 16:33N 35°17' E 139°41'0 0.0
2016-Jul-21 15:33N 35°17' E 139°41'0 0.0
2016-Jul-21 14:33N 35°17' E 139°41'0 0.0
2016-Jul-21 13:33N 35°17' E 139°41'0 0.0
2016-Jul-21 12:31N 35°17' E 139°41'0 0.0
2016-Jul-21 11:15N 35°17' E 139°41'0 0.0
2016-Jul-21 10:33N 35°17' E 139°41'0 0.0
2016-Jul-21 09:33N 35°17' E 139°41'5 4.7
2016-Jul-21 08:34N 35°21' E 139°43'4 3.5
2016-Jul-21 07:33N 35°18' E 139°44'8 8.1
2016-Jul-21 06:32N 35°10' E 139°47'4 2.2
2016-Jul-21 04:33N 35°13' E 139°43'0 0.0
2016-Jul-21 03:33N 35°13' E 139°43'3 2.9
2016-Jul-21 02:33N 35°14' E 139°46'1111.5
2016-Jul-21 01:34N 35°25' E 139°44'6 5.5
2016-Jul-21 00:33N 35°21' E 139°49'3 2.6
2016-Jul-20 23:34N 35°21' E 139°46'6 5.6
2016-Jul-20 22:32N 35°17' E 139°41'0 0.0
2016-Jul-20 21:28N 35°17' E 139°41'0 0.0
2016-Jul-20 16:10N 35°17' E 139°41'0 0.0
2016-Jul-20 15:33N 35°17' E 139°41'0 0.0
2016-Jul-20 14:30N 35°17' E 139°41'0 0.0
2016-Jul-20 13:23N 35°17' E 139°41'0 0.0
2016-Jul-20 12:20N 35°17' E 139°41'0 0.0
2016-Jul-20 10:32N 35°17' E 139°41'0 0.0
2016-Jul-20 09:27N 35°17' E 139°41'0 0.0
2016-Jul-20 07:24N 35°17' E 139°41'0 0.0
2016-Jul-20 06:30N 35°17' E 139°41'0 0.0
2016-Jul-20 05:30N 35°17' E 139°41'4 2.0
2016-Jul-20 03:33N 35°21' E 139°42'1010.0
2016-Jul-20 02:34N 35°27' E 139°52'5 4.8
2016-Jul-20 01:34N 35°25' E 139°46'1111.0
2016-Jul-20 00:34N 35°14' E 139°47'3 2.6
2016-Jul-19 23:30N 35°16' E 139°45'4 4.1
2016-Jul-19 22:33N 35°17' E 139°41'0 0.0
2016-Jul-19 21:31N 35°17' E 139°41'0 0.0
2016-Jul-19 20:33N 35°17' E 139°41'0 0.0
2016-Jul-19 19:32N 35°17' E 139°41'0 0.0
2016-Jul-19 18:32N 35°17' E 139°41'0 0.0
2016-Jul-19 17:33N 35°17' E 139°41'0 0.0
2016-Jul-19 16:33N 35°17' E 139°41'0 0.0
2016-Jul-19 15:33N 35°17' E 139°41'0 0.0
2016-Jul-19 14:33N 35°17' E 139°41'0 0.0
2016-Jul-19 13:34N 35°17' E 139°41'0 0.0
2016-Jul-19 12:32N 35°17' E 139°41'0 0.0
2016-Jul-19 11:32N 35°17' E 139°41'0 0.0
2016-Jul-19 10:32N 35°17' E 139°41'0 0.0
2016-Jul-19 09:31N 35°17' E 139°41'0 0.0
2016-Jul-19 08:32N 35°17' E 139°41'0 0.0
2016-Jul-19 07:31N 35°17' E 139°41'7 2.4
2016-Jul-19 04:34N 35°24' E 139°39'1 0.9
2016-Jul-19 03:34N 35°23' E 139°39'0 0.0
2016-Jul-19 02:33N 35°23' E 139°39'6 6.3
2016-Jul-19 01:33N 35°17' E 139°41'0 0.0
2016-Jul-19 00:33N 35°17' E 139°41'0 0.0
2016-Jul-18 23:19N 35°17' E 139°41'0 0.0
2016-Jul-18 22:22N 35°17' E 139°41'0 0.0
2016-Jul-18 21:33N 35°17' E 139°41'0 0.0
2016-Jul-18 20:33N 35°17' E 139°41'0 0.0
2016-Jul-18 19:23N 35°17' E 139°41'0 0.0
2016-Jul-18 18:30N 35°17' E 139°41'0 0.0
2016-Jul-18 17:18N 35°17' E 139°41'0 0.0
2016-Jul-18 15:28N 35°17' E 139°41'0 0.0
2016-Jul-18 14:30N 35°17' E 139°41'  
Track history (hours):
 
Tides and Currents Weather Stations Pressure Air Temp Water Temp Dewpoint Dewpoint Depression Visibility Wind Speed Wind Dir Waves Ship Positions

Uraga Maru

Last reported at 2016-Jul-28 13:33 UTC. Time now 2016-Jul-28 16:28 UTC.
Position N 35°17' E 139°44'.

Length 40 m; draft 2.8 m.

Type: Tug. MMSI: 431101119.

Date/timePositionNaut miles runAvg speedWind from/ knotsBaromVisibWave heightAir tempDewpointWater temp
2016-Jul-28 13:33N 35°17' E 139°44'3 2.9
2016-Jul-28 12:34N 35°20' E 139°43'5 4.6
2016-Jul-28 11:33N 35°24' E 139°44'0 0.0
2016-Jul-28 10:33N 35°24' E 139°44'1 0.9
2016-Jul-28 09:33N 35°23' E 139°44'9 8.5
2016-Jul-28 08:27N 35°14' E 139°47'1111.7
2016-Jul-28 07:33N 35°24' E 139°43'1211.5
2016-Jul-28 06:33N 35°30' E 139°55'2 2.2
2016-Jul-28 05:33N 35°29' E 139°58'10 9.8
2016-Jul-28 04:33N 35°23' E 139°48'6 0.2
2016-Jul-27 01:33N 35°19' E 139°42'2 2.4
2016-Jul-27 00:33N 35°20' E 139°44'1110.6
2016-Jul-26 23:33N 35°10' E 139°47'5 4.8
2016-Jul-26 22:33N 35°13' E 139°43'2 1.6
2016-Jul-26 21:34N 35°13' E 139°45'9 9.2
2016-Jul-26 20:33N 35°22' E 139°42'4 4.3
2016-Jul-26 19:33N 35°18' E 139°41'1 0.3
2016-Jul-26 16:14N 35°17' E 139°41'0 0.0
2016-Jul-26 12:26N 35°17' E 139°41'6 7.1
2016-Jul-26 11:33N 35°13' E 139°46'1111.2
2016-Jul-26 10:34N 35°23' E 139°42'4 3.7
2016-Jul-26 09:33N 35°27' E 139°42'0 0.0
2016-Jul-26 08:33N 35°27' E 139°42'0 0.0
2016-Jul-26 07:33N 35°27' E 139°42'6 6.3
2016-Jul-26 06:33N 35°29' E 139°49'3 3.2
2016-Jul-26 05:33N 35°26' E 139°48'1010.4
2016-Jul-26 04:33N 35°15' E 139°47'5 4.9
2016-Jul-26 03:33N 35°11' E 139°48'4 4.1
2016-Jul-26 02:33N 35°15' E 139°46'1110.8
2016-Jul-26 01:33N 35°25' E 139°44'5 5.4
2016-Jul-26 00:33N 35°21' E 139°49'1 0.9
2016-Jul-25 23:33N 35°22' E 139°48'8 2.5
2016-Jul-25 20:31N 35°17' E 139°41'0 0.0
2016-Jul-25 19:21N 35°17' E 139°41'0 0.0
2016-Jul-25 08:13N 35°17' E 139°41'0 0.0
2016-Jul-25 02:22N 35°17' E 139°41'0 0.0
2016-Jul-25 01:31N 35°17' E 139°41'5 5.0
2016-Jul-25 00:33N 35°22' E 139°43'3 2.8
2016-Jul-24 23:33N 35°19' E 139°44'9 9.2
2016-Jul-24 22:33N 35°10' E 139°47'10 9.1
2016-Jul-24 21:30N 35°19' E 139°42'4 3.8
2016-Jul-24 20:33N 35°22' E 139°45'1211.4
2016-Jul-24 19:33N 35°10' E 139°47'8 8.0
2016-Jul-24 18:33N 35°18' E 139°43'2 1.6
2016-Jul-24 17:16N 35°17' E 139°41'0 0.0
2016-Jul-24 16:32N 35°17' E 139°41'0 0.0
2016-Jul-24 15:32N 35°17' E 139°41'0 0.0
2016-Jul-24 14:33N 35°17' E 139°41'0 0.0
2016-Jul-24 13:30N 35°17' E 139°41'0 0.0
2016-Jul-24 12:32N 35°17' E 139°41'0 0.0
2016-Jul-24 11:33N 35°17' E 139°41'0 0.0
2016-Jul-24 10:33N 35°17' E 139°41'0 0.1
2016-Jul-24 09:32N 35°17' E 139°41'6 5.7
2016-Jul-24 08:33N 35°14' E 139°46'10 9.9
2016-Jul-24 07:33N 35°23' E 139°42'4 3.8
2016-Jul-24 06:33N 35°27' E 139°42'9 9.0
2016-Jul-24 05:33N 35°29' E 139°53'1111.0
2016-Jul-24 04:33N 35°20' E 139°45'1111.0
2016-Jul-24 03:33N 35°10' E 139°46'5 4.5
2016-Jul-24 02:32N 35°13' E 139°43'0 0.0
2016-Jul-24 01:33N 35°13' E 139°43'1 1.4
2016-Jul-24 00:33N 35°13' E 139°45'8 7.6
2016-Jul-23 23:34N 35°20' E 139°42'4 4.0
2016-Jul-23 22:33N 35°24' E 139°44'7 6.8
2016-Jul-23 21:33N 35°19' E 139°39'2 2.3
2016-Jul-23 20:33N 35°18' E 139°41'1 1.0
2016-Jul-23 19:33N 35°17' E 139°41'0 0.0
2016-Jul-23 18:33N 35°17' E 139°41'0 0.0
2016-Jul-23 17:33N 35°17' E 139°41'0 0.0
2016-Jul-23 16:33N 35°17' E 139°41'0 0.0
2016-Jul-23 15:33N 35°17' E 139°41'0 0.0
2016-Jul-23 14:33N 35°17' E 139°41'0 0.0
2016-Jul-23 13:33N 35°17' E 139°41'0 0.0
2016-Jul-23 12:33N 35°17' E 139°41'0 0.0
2016-Jul-23 11:33N 35°17' E 139°41'0 0.0
2016-Jul-23 10:33N 35°17' E 139°41'0 0.0
2016-Jul-23 09:33N 35°17' E 139°41'0 0.0
2016-Jul-23 08:33N 35°17' E 139°41'0 0.0
2016-Jul-23 07:33N 35°17' E 139°41'0 0.0
2016-Jul-23 06:33N 35°17' E 139°41'4 2.1
2016-Jul-23 04:33N 35°13' E 139°43'4 4.3
2016-Jul-23 03:33N 35°17' E 139°41'0 0.3
2016-Jul-23 02:33N 35°17' E 139°41'0 0.0
2016-Jul-23 01:33N 35°17' E 139°41'1111.2
2016-Jul-23 00:33N 35°25' E 139°50'5 5.3
2016-Jul-22 23:33N 35°30' E 139°53'1312.7
2016-Jul-22 22:33N 35°20' E 139°44'1010.3
2016-Jul-22 21:33N 35°09' E 139°47'9 8.8
2016-Jul-22 20:33N 35°18' E 139°42'2 1.5
2016-Jul-22 19:29N 35°17' E 139°41'0 0.0
2016-Jul-22 18:15N 35°17' E 139°41'0 0.0
2016-Jul-22 17:29N 35°17' E 139°41'0 0.0
2016-Jul-22 16:31N 35°17' E 139°41'1 0.3
2016-Jul-22 12:33N 35°18' E 139°42'5 4.6
2016-Jul-22 11:29N 35°14' E 139°46'1112.4
2016-Jul-22 10:33N 35°25' E 139°44'2 2.1
2016-Jul-22 09:33N 35°27' E 139°42'0 0.0
2016-Jul-22 08:33N 35°27' E 139°42'0 0.0
2016-Jul-22 07:33N 35°27' E 139°42'7 3.7
2016-Jul-22 05:33N 35°29' E 139°51'3 2.6
2016-Jul-22 04:33N 35°27' E 139°49'10 9.7
2016-Jul-22 03:33N 35°18' E 139°45'8 8.0
2016-Jul-22 02:33N 35°10' E 139°47'6 5.6
2016-Jul-22 01:28N 35°16' E 139°45'8 8.4
2016-Jul-22 00:33N 35°23' E 139°45'3 2.6
2016-Jul-21 23:33N 35°25' E 139°48'8 8.0
2016-Jul-21 22:33N 35°17' E 139°46'6 5.7
2016-Jul-21 21:33N 35°11' E 139°46'7 7.4
2016-Jul-21 20:33N 35°17' E 139°41'0 0.0
2016-Jul-21 19:33N 35°17' E 139°41'0 0.0
2016-Jul-21 18:33N 35°17' E 139°41'0 0.0
2016-Jul-21 17:33N 35°17' E 139°41'0 0.0
2016-Jul-21 16:33N 35°17' E 139°41'0 0.0
2016-Jul-21 15:33N 35°17' E 139°41'0 0.0
2016-Jul-21 14:33N 35°17' E 139°41'0 0.0
2016-Jul-21 13:33N 35°17' E 139°41'0 0.0
2016-Jul-21 12:31N 35°17' E 139°41'0 0.0
2016-Jul-21 11:15N 35°17' E 139°41'0 0.0
2016-Jul-21 10:33N 35°17' E 139°41'0 0.0
2016-Jul-21 09:33N 35°17' E 139°41'5 4.7
2016-Jul-21 08:34N 35°21' E 139°43'4 3.5
2016-Jul-21 07:33N 35°18' E 139°44'8 8.1
2016-Jul-21 06:32N 35°10' E 139°47'4 2.2
2016-Jul-21 04:33N 35°13' E 139°43'0 0.0
2016-Jul-21 03:33N 35°13' E 139°43'3 2.9
2016-Jul-21 02:33N 35°14' E 139°46'1111.5
2016-Jul-21 01:34N 35°25' E 139°44'6 5.5
2016-Jul-21 00:33N 35°21' E 139°49'3 2.6
2016-Jul-20 23:34N 35°21' E 139°46'6 5.6
2016-Jul-20 22:32N 35°17' E 139°41'0 0.0
2016-Jul-20 21:28N 35°17' E 139°41'0 0.0
2016-Jul-20 16:10N 35°17' E 139°41'0 0.0
2016-Jul-20 15:33N 35°17' E 139°41'0 0.0
2016-Jul-20 14:30N 35°17' E 139°41'0 0.0
2016-Jul-20 13:23N 35°17' E 139°41'0 0.0
2016-Jul-20 12:20N 35°17' E 139°41'0 0.0
2016-Jul-20 10:32N 35°17' E 139°41'0 0.0
2016-Jul-20 09:27N 35°17' E 139°41'0 0.0
2016-Jul-20 07:24N 35°17' E 139°41'0 0.0
2016-Jul-20 06:30N 35°17' E 139°41'0 0.0
2016-Jul-20 05:30N 35°17' E 139°41'4 2.0
2016-Jul-20 03:33N 35°21' E 139°42'1010.0
2016-Jul-20 02:34N 35°27' E 139°52'5 4.8
2016-Jul-20 01:34N 35°25' E 139°46'1111.0
2016-Jul-20 00:34N 35°14' E 139°47'3 2.6
2016-Jul-19 23:30N 35°16' E 139°45'4 4.1
2016-Jul-19 22:33N 35°17' E 139°41'0 0.0
2016-Jul-19 21:31N 35°17' E 139°41'0 0.0
2016-Jul-19 20:33N 35°17' E 139°41'0 0.0
2016-Jul-19 19:32N 35°17' E 139°41'0 0.0
2016-Jul-19 18:32N 35°17' E 139°41'0 0.0
2016-Jul-19 17:33N 35°17' E 139°41'0 0.0
2016-Jul-19 16:33N 35°17' E 139°41'0 0.0
2016-Jul-19 15:33N 35°17' E 139°41'0 0.0
2016-Jul-19 14:33N 35°17' E 139°41'0 0.0
2016-Jul-19 13:34N 35°17' E 139°41'0 0.0
2016-Jul-19 12:32N 35°17' E 139°41'0 0.0
2016-Jul-19 11:32N 35°17' E 139°41'0 0.0
2016-Jul-19 10:32N 35°17' E 139°41'0 0.0
2016-Jul-19 09:31N 35°17' E 139°41'0 0.0
2016-Jul-19 08:32N 35°17' E 139°41'0 0.0
2016-Jul-19 07:31N 35°17' E 139°41'7 2.4
2016-Jul-19 04:34N 35°24' E 139°39'1 0.9
2016-Jul-19 03:34N 35°23' E 139°39'0 0.0
2016-Jul-19 02:33N 35°23' E 139°39'6 6.3
2016-Jul-19 01:33N 35°17' E 139°41'0 0.0
2016-Jul-19 00:33N 35°17' E 139°41'0 0.0
2016-Jul-18 23:19N 35°17' E 139°41'0 0.0
2016-Jul-18 22:22N 35°17' E 139°41'0 0.0
2016-Jul-18 21:33N 35°17' E 139°41'0 0.0
2016-Jul-18 20:33N 35°17' E 139°41'0 0.0
2016-Jul-18 19:23N 35°17' E 139°41'0 0.0
2016-Jul-18 18:30N 35°17' E 139°41'0 0.0
2016-Jul-18 17:18N 35°17' E 139°41'0 0.0
2016-Jul-18 15:28N 35°17' E 139°41'0 0.0
2016-Jul-18 14:30N 35°17' E 139°41'  

Dump ship's entire track history